CFS Alert, Nunavut

Past 24 Hour Conditions

Date / Time
(EST)
Conditions Temp
(°C)
Humidity
(%)
Dew Point
(°C)
Wind
(km/h)
Pressure
(kPa)
Vis
(km)
Wind Chill
23 November 2014
4:00 N/A -29 76 -32 NW 3 101.0 N/A -32
3:00 N/A -27 77 -30 WNW 7 100.9 N/A -34
2:00 N/A -27 77 -30 WNW 3 100.9 N/A -30
1:00 N/A -26   78 -28 calm 100.9 N/A *
00:00 N/A -28 75 -31 WNW 4 100.9 N/A -32
22 November 2014
23:00 N/A -29 76 -32 WNW 9 100.9 N/A -37
22:00 N/A -29 75 -32 WNW 8 100.9 N/A -37
21:00 N/A -29 75 -32 WNW 9 100.9 N/A -38
20:00 N/A -29 76 -32 WNW 8 100.9 N/A -37
19:00 N/A -28 76 -31 WNW 4 100.9 N/A -32
18:00 N/A -29 76 -32 WNW 5 100.8 N/A -34
17:00 N/A -30   75 -33 WNW 8 100.8 N/A -38
16:00 N/A -29 78 -31 W 8 100.8 N/A -36
15:00 N/A -29 77 -32 WNW 7 100.8 N/A -36
14:00 N/A -29 76 -32 W 6 100.8 N/A -35
13:00 N/A -29 78 -31 NW 6 100.7 N/A -35
12:00 N/A -26   77 -29 calm 100.7 N/A *
11:00 N/A -26   79 -29 SE 9 100.6 N/A -34
10:00 N/A -27 79 -30 S 2 100.6 N/A -29
9:00 N/A -27 76 -30 W 3 100.5 N/A -30
8:00 N/A -26   75 -29 calm 100.4 N/A *
7:00 N/A -26   77 -29 calm 100.3 N/A *
6:00 N/A -26   79 -29 calm 100.3 N/A *
5:00 N/A -26   78 -29 SSE 2 100.3 N/A -28
4:00 N/A -27 78 -29 calm 100.2 N/A *
N/A Not available
↑ Highest temperature
↓ Lowest temperature
* Value not significant.

If you require additional historical weather information, please visit Climate Data Online.

Date modified: